createdAt,value
2023-01-30T00:02:27.757Z,77.43
2023-01-30T00:05:44.463Z,77.90
2023-01-30T00:08:54.021Z,77.78
2023-01-30T00:12:04.780Z,78.04
2023-01-30T00:15:14.630Z,78.80
2023-01-30T00:18:20.684Z,79.45
2023-01-30T00:21:25.315Z,78.89
2023-01-30T00:24:28.872Z,79.20
2023-01-30T00:27:32.807Z,80.04
2023-01-30T00:30:38.035Z,80.16
2023-01-30T00:33:45.939Z,80.05
2023-01-30T00:36:58.856Z,79.87
2023-01-30T00:40:11.741Z,80.25
2023-01-30T00:43:36.807Z,79.85
2023-01-30T00:47:01.613Z,81.07
2023-01-30T00:50:05.760Z,80.18
2023-01-30T00:53:22.907Z,80.44
2023-01-30T00:56:31.159Z,79.77
2023-01-30T00:59:36.142Z,79.59
2023-01-30T01:02:40.357Z,78.73
2023-01-30T01:05:46.616Z,78.92
2023-01-30T01:08:52.795Z,79.67
2023-01-30T01:11:57.950Z,79.63
2023-01-30T01:15:03.022Z,79.48
2023-01-30T01:18:08.471Z,79.85
2023-01-30T01:21:24.520Z,79.16
2023-01-30T01:24:49.311Z,79.89
2023-01-30T01:27:55.449Z,79.32
2023-01-30T01:31:00.860Z,78.18
2023-01-30T01:34:05.388Z,77.91
2023-01-30T01:37:12.992Z,77.90
2023-01-30T01:40:43.249Z,78.26
2023-01-30T01:44:04.416Z,78.68
2023-01-30T01:47:09.906Z,77.41
2023-01-30T01:50:36.644Z,77.91
2023-01-30T01:53:55.827Z,77.43
2023-01-30T01:57:08.366Z,77.77
2023-01-30T02:00:18.275Z,78.49
2023-01-30T02:03:36.115Z,78.82
2023-01-30T02:06:47.873Z,79.42
2023-01-30T02:09:52.035Z,78.96
2023-01-30T02:13:00.160Z,78.96
2023-01-30T02:16:10.516Z,79.35
2023-01-30T02:19:33.067Z,78.45
2023-01-30T02:22:53.828Z,78.43
2023-01-30T02:26:08.183Z,78.75
2023-01-30T02:29:41.247Z,79.29
2023-01-30T02:33:15.062Z,79.76
2023-01-30T02:36:56.768Z,79.92
2023-01-30T02:40:27.990Z,80.65
2023-01-30T02:44:06.064Z,81.25
2023-01-30T02:47:20.930Z,80.75
2023-01-30T02:50:29.361Z,81.57
2023-01-30T02:53:34.068Z,81.46
2023-01-30T02:56:52.496Z,81.53
2023-01-30T02:59:59.254Z,81.40
2023-01-30T03:03:32.405Z,81.98
2023-01-30T03:06:48.862Z,81.74
2023-01-30T03:10:07.804Z,81.56
2023-01-30T03:13:21.230Z,81.56
2023-01-30T03:16:34.624Z,83.34
2023-01-30T03:20:02.969Z,82.94
2023-01-30T03:23:19.928Z,83.00
2023-01-30T03:26:33.311Z,82.77
2023-01-30T03:29:38.857Z,83.24
2023-01-30T03:32:56.033Z,84.24
2023-01-30T03:35:58.835Z,83.35
2023-01-30T03:39:01.229Z,82.00
2023-01-30T03:42:10.038Z,82.37
2023-01-30T03:45:18.080Z,82.58
2023-01-30T03:48:22.679Z,82.29
2023-01-30T03:51:28.019Z,81.89
2023-01-30T03:54:31.299Z,83.44
2023-01-30T03:57:37.125Z,83.67
2023-01-30T04:00:45.422Z,84.00
2023-01-30T04:04:01.943Z,84.60
2023-01-30T04:10:34.220Z,83.67
2023-01-30T04:13:36.497Z,83.17
2023-01-30T04:16:44.444Z,82.67
2023-01-30T04:20:11.229Z,82.80
2023-01-30T04:23:29.523Z,83.46
2023-01-30T04:26:32.797Z,84.50
2023-01-30T04:29:37.937Z,83.01
2023-01-30T04:32:48.291Z,84.10
2023-01-30T04:35:57.353Z,82.88
2023-01-30T04:39:02.552Z,83.27
2023-01-30T04:42:13.638Z,82.85
2023-01-30T04:45:30.904Z,83.69
2023-01-30T04:48:33.185Z,84.50
2023-01-30T04:51:38.087Z,84.22
2023-01-30T04:54:46.441Z,84.20
2023-01-30T04:57:48.755Z,83.33
2023-01-30T05:00:54.017Z,83.57
2023-01-30T05:03:56.575Z,84.27
2023-01-30T05:06:59.013Z,84.09
2023-01-30T05:10:04.202Z,84.34
2023-01-30T05:13:16.893Z,84.46
2023-01-30T05:16:28.940Z,83.73
2023-01-30T05:19:31.407Z,83.37
2023-01-30T05:22:38.317Z,84.98
2023-01-30T05:25:52.838Z,86.03
2023-01-30T05:29:00.714Z,86.61
2023-01-30T05:32:11.269Z,86.35
2023-01-30T05:35:19.158Z,86.28
2023-01-30T05:38:30.470Z,85.81
2023-01-30T05:41:33.854Z,86.71
2023-01-30T05:44:39.080Z,85.20
2023-01-30T05:48:01.593Z,86.50
2023-01-30T05:51:04.277Z,86.19
2023-01-30T05:54:07.650Z,85.56
2023-01-30T05:57:20.717Z,85.63
2023-01-30T06:00:31.104Z,85.52
2023-01-30T06:03:36.036Z,85.89
2023-01-30T06:06:41.346Z,84.26
2023-01-30T06:09:43.599Z,83.52
2023-01-30T06:12:48.015Z,84.60
2023-01-30T06:15:55.874Z,83.84
2023-01-30T06:19:02.595Z,82.52
2023-01-30T06:22:07.372Z,83.17
2023-01-30T06:25:15.550Z,83.29
2023-01-30T06:28:20.541Z,83.00
2023-01-30T06:31:27.870Z,82.86
2023-01-30T06:34:32.977Z,82.46
2023-01-30T06:37:35.523Z,81.38
2023-01-30T06:40:42.007Z,80.86
2023-01-30T06:43:46.994Z,80.23
2023-01-30T06:46:52.999Z,79.27
2023-01-30T06:50:00.623Z,78.80
2023-01-30T06:53:06.374Z,78.66
2023-01-30T06:56:13.984Z,76.85
2023-01-30T06:59:16.299Z,75.63
2023-01-30T07:02:37.402Z,77.27
2023-01-30T07:05:45.855Z,76.08
2023-01-30T07:09:00.844Z,76.30
2023-01-30T07:12:08.043Z,74.87
2023-01-30T07:15:13.496Z,74.99
2023-01-30T07:18:18.698Z,75.30
2023-01-30T07:21:33.043Z,75.64
2023-01-30T07:24:48.133Z,74.47
2023-01-30T07:27:56.281Z,75.22
2023-01-30T07:31:02.051Z,75.44
2023-01-30T07:34:24.101Z,74.62
2023-01-30T07:37:30.445Z,74.58
2023-01-30T07:40:37.328Z,73.87
2023-01-30T07:43:49.044Z,74.20
2023-01-30T07:46:54.354Z,74.15
2023-01-30T07:49:57.090Z,75.00
2023-01-30T07:53:03.588Z,74.35
2023-01-30T07:56:24.413Z,72.96
2023-01-30T07:59:40.329Z,73.50
2023-01-30T08:02:46.433Z,73.47
2023-01-30T08:05:55.559Z,71.88
2023-01-30T08:08:57.819Z,71.93
2023-01-30T08:12:05.571Z,73.22
2023-01-30T08:15:12.056Z,73.24
2023-01-30T08:18:19.414Z,71.98
2023-01-30T08:21:21.853Z,72.20
2023-01-30T08:24:26.818Z,72.00
2023-01-30T08:27:29.162Z,72.19
2023-01-30T08:30:34.008Z,71.33
2023-01-30T08:33:39.526Z,70.86
2023-01-30T08:36:50.109Z,70.67
2023-01-30T08:39:52.615Z,70.41
2023-01-30T08:42:56.394Z,71.53
2023-01-30T08:45:58.964Z,70.60
2023-01-30T08:49:04.953Z,70.99
2023-01-30T08:52:15.598Z,70.21
2023-01-30T08:55:27.984Z,69.70
2023-01-30T08:58:30.317Z,69.29
2023-01-30T09:01:35.840Z,69.87
2023-01-30T09:04:43.083Z,70.21
2023-01-30T09:07:50.466Z,69.73
2023-01-30T09:11:06.949Z,69.47
2023-01-30T09:14:14.942Z,69.65
2023-01-30T09:17:17.177Z,69.49
2023-01-30T09:20:22.344Z,69.89
2023-01-30T09:23:24.771Z,70.13
2023-01-30T09:26:33.233Z,69.56
2023-01-30T09:29:38.348Z,70.12
2023-01-30T09:32:43.454Z,70.15
2023-01-30T09:35:51.854Z,69.35
2023-01-30T09:38:56.961Z,69.56
2023-01-30T09:42:02.259Z,69.24
2023-01-30T09:45:15.296Z,69.63
2023-01-30T09:48:42.616Z,69.73
2023-01-30T09:51:50.669Z,69.93
2023-01-30T09:55:01.814Z,71.38
2023-01-30T09:58:06.009Z,71.59
2023-01-30T10:01:50.827Z,71.17
2023-01-30T10:05:01.630Z,70.92
2023-01-30T10:08:08.943Z,70.38
2023-01-30T10:11:36.600Z,69.63
2023-01-30T10:15:22.859Z,68.19
2023-01-30T10:18:49.405Z,67.11
2023-01-30T10:22:25.211Z,66.67
2023-01-30T10:25:44.871Z,66.01
2023-01-30T10:29:08.005Z,66.06
2023-01-30T10:32:14.185Z,65.67
2023-01-30T10:35:20.853Z,66.29
2023-01-30T10:38:38.586Z,66.04
2023-01-30T10:41:54.487Z,65.92
2023-01-30T10:45:07.071Z,65.58
2023-01-30T10:48:20.339Z,65.50
2023-01-30T10:51:44.419Z,66.01
2023-01-30T10:55:10.519Z,65.54
2023-01-30T10:58:44.957Z,66.17
2023-01-30T11:02:01.911Z,66.33
2023-01-30T11:05:21.207Z,66.35
2023-01-30T11:08:34.330Z,66.21
2023-01-30T11:11:53.460Z,65.69
2023-01-30T11:15:09.031Z,65.27
2023-01-30T11:19:17.167Z,65.46
2023-01-30T11:22:02.705Z,66.64
2023-01-30T11:25:16.462Z,67.08
2023-01-30T11:28:26.267Z,66.78
2023-01-30T11:31:42.287Z,66.62
2023-01-30T11:35:04.801Z,66.92
2023-01-30T11:38:29.997Z,67.24
2023-01-30T11:42:08.795Z,67.35
2023-01-30T11:45:17.821Z,67.34
2023-01-30T11:48:32.945Z,67.10
2023-01-30T11:51:55.609Z,67.03
2023-01-30T11:55:07.042Z,68.00
2023-01-30T11:58:20.397Z,67.21
2023-01-30T12:01:33.974Z,68.13
2023-01-30T12:04:38.052Z,68.36
2023-01-30T12:07:41.459Z,68.13
2023-01-30T12:10:46.134Z,67.66
2023-01-30T12:13:49.644Z,67.78
2023-01-30T12:17:04.178Z,67.38
2023-01-30T12:20:37.428Z,67.45
2023-01-30T12:23:43.216Z,67.45
2023-01-30T12:27:04.755Z,67.60
2023-01-30T12:30:44.440Z,67.15
2023-01-30T12:33:49.238Z,66.93
2023-01-30T12:37:09.210Z,66.89
2023-01-30T12:40:39.156Z,66.52
2023-01-30T12:44:02.047Z,66.43
2023-01-30T12:47:33.563Z,66.29
2023-01-30T12:50:45.742Z,66.71
2023-01-30T12:54:09.285Z,67.47
2023-01-30T12:57:39.746Z,67.29
2023-01-30T13:00:48.260Z,67.82
2023-01-30T13:04:04.005Z,69.05
2023-01-30T13:07:26.799Z,69.44
2023-01-30T13:10:46.052Z,69.49
2023-01-30T13:14:00.352Z,69.69
2023-01-30T13:17:14.351Z,69.59
2023-01-30T13:20:37.887Z,70.64
2023-01-30T13:24:25.543Z,70.59
2023-01-30T13:27:41.906Z,70.62
2023-01-30T13:30:46.590Z,71.08
2023-01-30T13:34:05.506Z,70.80
2023-01-30T13:37:14.853Z,71.05
2023-01-30T13:40:25.038Z,70.87
2023-01-30T13:43:38.752Z,70.88
2023-01-30T13:46:50.886Z,70.60
2023-01-30T13:50:20.640Z,70.37
2023-01-30T13:53:36.086Z,69.37
2023-01-30T13:56:48.366Z,70.17
2023-01-30T14:00:11.506Z,70.18
2023-01-30T14:03:31.450Z,69.83
2023-01-30T14:06:38.504Z,69.69
2023-01-30T14:09:46.520Z,70.11
2023-01-30T14:12:56.931Z,69.19
2023-01-30T14:16:06.467Z,69.33
2023-01-30T14:19:48.156Z,69.34
2023-01-30T14:23:00.284Z,69.52
2023-01-30T14:26:07.229Z,70.69
2023-01-30T14:29:11.735Z,70.83
2023-01-30T14:32:19.337Z,70.94
2023-01-30T14:35:33.162Z,72.86
2023-01-30T14:38:40.159Z,74.85
2023-01-30T14:41:47.583Z,75.47
2023-01-30T14:45:17.593Z,76.50
2023-01-30T14:48:54.892Z,77.70
2023-01-30T14:52:04.666Z,78.09
2023-01-30T14:55:23.409Z,78.54
2023-01-30T14:58:28.767Z,79.34
2023-01-30T15:02:00.859Z,78.94
2023-01-30T15:05:22.737Z,78.26
2023-01-30T15:08:27.986Z,79.23
2023-01-30T15:11:37.440Z,78.66
2023-01-30T15:15:04.460Z,78.54
2023-01-30T15:18:11.833Z,78.35
2023-01-30T15:21:47.207Z,78.98
2023-01-30T15:25:20.614Z,78.23
2023-01-30T15:29:05.266Z,77.42
2023-01-30T15:32:29.772Z,77.62
2023-01-30T15:35:37.361Z,77.46
2023-01-30T15:38:49.059Z,77.31
2023-01-30T15:41:53.120Z,77.61
2023-01-30T15:45:14.440Z,79.27
2023-01-30T15:49:01.398Z,81.63
2023-01-30T15:52:08.126Z,81.40
2023-01-30T15:55:38.063Z,81.58
2023-01-30T15:58:43.179Z,82.12
2023-01-30T16:02:12.806Z,82.60
2023-01-30T16:05:28.538Z,82.43
2023-01-30T16:08:38.039Z,81.96
2023-01-30T16:11:45.929Z,82.00
2023-01-30T16:14:51.822Z,81.39
2023-01-30T16:18:15.481Z,81.83
2023-01-30T16:21:36.942Z,81.57
2023-01-30T16:24:44.031Z,81.94
2023-01-30T16:27:51.278Z,81.89
2023-01-30T16:31:00.781Z,82.00
2023-01-30T16:34:08.843Z,81.79
2023-01-30T16:37:16.549Z,82.53
2023-01-30T16:40:29.298Z,83.42
2023-01-30T16:43:37.737Z,83.85
2023-01-30T16:46:46.304Z,84.53
2023-01-30T16:50:12.937Z,84.10
2023-01-30T16:53:27.797Z,85.14
2023-01-30T16:56:41.461Z,84.88
2023-01-30T16:59:50.401Z,85.15
2023-01-30T17:03:02.739Z,85.11
2023-01-30T17:06:16.274Z,86.71
2023-01-30T17:09:46.374Z,85.92
2023-01-30T17:12:50.205Z,86.17
2023-01-30T17:15:53.675Z,85.54
2023-01-30T17:18:59.726Z,84.87
2023-01-30T17:22:08.594Z,83.73
2023-01-30T17:25:42.227Z,83.86
2023-01-30T17:28:49.367Z,84.10
2023-01-30T17:31:57.937Z,83.68
2023-01-30T17:35:03.931Z,84.20
2023-01-30T17:38:06.549Z,84.04
2023-01-30T17:41:23.480Z,83.60
2023-01-30T17:44:25.753Z,83.39
2023-01-30T17:47:42.596Z,82.98
2023-01-30T17:50:54.206Z,82.62
2023-01-30T17:53:56.535Z,82.33
2023-01-30T17:57:09.845Z,82.38
2023-01-30T18:00:18.659Z,82.67
2023-01-30T18:03:27.748Z,82.78
2023-01-30T18:06:34.089Z,82.19
2023-01-30T18:09:36.297Z,82.13
2023-01-30T18:12:43.106Z,80.73
2023-01-30T18:15:48.242Z,80.69
2023-01-30T18:18:54.461Z,80.99
2023-01-30T18:22:00.193Z,80.81
2023-01-30T18:25:17.581Z,81.55
2023-01-30T18:28:20.106Z,80.51
2023-01-30T18:31:26.326Z,79.77
2023-01-30T18:34:28.880Z,79.63
2023-01-30T18:37:34.082Z,80.00
2023-01-30T18:40:44.774Z,79.40
2023-01-30T18:43:51.492Z,80.08
2023-01-30T18:47:00.683Z,80.18
2023-01-30T18:50:13.912Z,80.07
2023-01-30T18:53:19.096Z,79.97
2023-01-30T18:56:34.535Z,79.93
2023-01-30T18:59:36.901Z,79.07
2023-01-30T19:02:39.309Z,78.80
2023-01-30T19:05:48.214Z,79.30
2023-01-30T19:08:50.833Z,79.61
2023-01-30T19:12:16.059Z,79.80
2023-01-30T19:15:19.821Z,80.11
2023-01-30T19:18:25.010Z,79.34
2023-01-30T19:21:28.733Z,78.08
2023-01-30T19:24:31.061Z,78.25
2023-01-30T19:27:36.512Z,77.92
2023-01-30T19:30:45.332Z,77.76
2023-01-30T19:34:04.692Z,77.92
2023-01-30T19:37:07.400Z,77.71
2023-01-30T19:40:11.144Z,77.44
2023-01-30T19:43:25.047Z,77.70
2023-01-30T19:46:36.989Z,76.84
2023-01-30T19:49:42.304Z,77.22
2023-01-30T19:52:54.475Z,77.40
2023-01-30T19:56:05.069Z,77.54
2023-01-30T19:59:09.835Z,78.66
2023-01-30T20:02:50.026Z,78.41
2023-01-30T20:05:53.479Z,78.30
2023-01-30T20:09:22.813Z,78.41
2023-01-30T20:12:30.804Z,79.19
2023-01-30T20:15:34.165Z,79.26
2023-01-30T20:18:42.238Z,78.73
2023-01-30T20:21:49.280Z,78.24
2023-01-30T20:24:54.298Z,77.50
2023-01-30T20:27:59.177Z,77.46
2023-01-30T20:31:11.359Z,76.48
2023-01-30T20:34:15.787Z,76.33
2023-01-30T20:37:26.320Z,77.47
2023-01-30T20:40:32.927Z,76.60
2023-01-30T20:43:49.058Z,76.30
2023-01-30T20:46:56.622Z,75.94
2023-01-30T20:50:01.429Z,74.33
2023-01-30T20:53:13.949Z,75.03
2023-01-30T20:56:16.428Z,76.21
2023-01-30T20:59:24.267Z,76.33
2023-01-30T21:02:34.389Z,74.42
2023-01-30T21:05:37.245Z,74.15
2023-01-30T21:09:02.784Z,74.80
2023-01-30T21:12:10.598Z,75.68
2023-01-30T21:15:23.529Z,76.18
2023-01-30T21:18:26.396Z,75.54
2023-01-30T21:21:55.026Z,75.02
2023-01-30T21:24:57.494Z,75.03
2023-01-30T21:28:10.113Z,74.69
2023-01-30T21:31:20.002Z,76.68
2023-01-30T21:34:29.169Z,78.55
2023-01-30T21:37:57.899Z,79.91
2023-01-30T21:41:18.730Z,80.44
2023-01-30T21:44:34.073Z,80.07
2023-01-30T21:47:42.937Z,80.65
2023-01-30T21:50:49.175Z,80.22
2023-01-30T21:54:05.927Z,80.65
2023-01-30T21:57:20.290Z,80.37
2023-01-30T22:00:23.999Z,81.05
2023-01-30T22:03:34.012Z,81.77
2023-01-30T22:06:40.549Z,81.05
2023-01-30T22:09:48.841Z,80.41
2023-01-30T22:12:51.274Z,78.77
2023-01-30T22:16:00.578Z,79.04
2023-01-30T22:19:06.616Z,80.16
2023-01-30T22:22:19.264Z,79.28
2023-01-30T22:25:30.565Z,77.34
2023-01-30T22:28:36.410Z,76.86
2023-01-30T22:31:53.165Z,77.47
2023-01-30T22:35:02.186Z,78.35
2023-01-30T22:38:04.455Z,77.76
2023-01-30T22:41:10.215Z,77.24
2023-01-30T22:44:14.731Z,77.55
2023-01-30T22:47:22.221Z,78.28
2023-01-30T22:50:27.580Z,78.03
2023-01-30T22:53:41.963Z,77.53
2023-01-30T22:56:51.005Z,77.50
2023-01-30T22:59:58.315Z,76.60
2023-01-30T23:03:06.903Z,76.95
2023-01-30T23:06:13.959Z,76.09
2023-01-30T23:09:22.388Z,74.17
2023-01-30T23:12:46.448Z,74.39
2023-01-30T23:15:51.356Z,74.70
2023-01-30T23:19:00.114Z,74.54
2023-01-30T23:22:09.173Z,73.61
2023-01-30T23:25:11.409Z,74.58
2023-01-30T23:28:17.632Z,74.96
2023-01-30T23:31:27.370Z,74.35
2023-01-30T23:34:33.226Z,73.62
2023-01-30T23:37:57.221Z,74.34
2023-01-30T23:41:11.788Z,76.02
2023-01-30T23:44:32.674Z,77.76
2023-01-30T23:47:37.940Z,79.82
2023-01-30T23:50:45.996Z,80.87
2023-01-30T23:53:54.613Z,81.50
2023-01-30T23:57:05.992Z,82.29
